Time;durP1;ratioP1;P1;durP2;ratioP2;P2;SDS_P1;SDS_P2;PMS_P1;PMS_P2;Temp;Humidity;BMP_temperature;BMP_pressure;BME280_temperature;BME280_humidity;BME280_pressure;Samples;Min_cycle;Max_cycle;Signal;HPM_P1;HPM_P2
2023/07/01 00:00:48;;;;;;;5.60;3.38;;;;;;;12.68;100.00;92772.28;2545303;23;20028;-84
2023/07/01 00:01:49;;;;;;;6.85;3.08;;;;;;;12.71;100.00;92784.09;2533135;23;20727;-84
2023/07/01 00:02:55;;;;;;;6.65;3.53;;;;;;;12.73;100.00;92774.44;2545575;23;20447;-81
2023/07/01 00:03:57;;;;;;;4.97;3.00;;;;;;;12.77;100.00;92774.28;2548145;23;20006;-84
2023/07/01 00:04:59;;;;;;;4.88;3.03;;;;;;;12.78;100.00;92771.19;2546001;23;20084;-83
2023/07/01 00:06:03;;;;;;;6.88;3.17;;;;;;;12.76;100.00;92770.09;2540618;23;20013;-82
2023/07/01 00:07:04;;;;;;;3.70;3.20;;;;;;;12.80;100.00;92760.00;2556849;23;20020;-80
2023/07/01 00:08:05;;;;;;;4.07;3.20;;;;;;;12.76;100.00;92770.09;2568538;23;19985;-80
2023/07/01 00:09:06;;;;;;;3.20;2.90;;;;;;;12.82;100.00;92765.69;2555994;23;19990;-82
2023/07/01 00:10:07;;;;;;;5.75;3.53;;;;;;;12.79;100.00;92764.63;2535221;23;20460;-82
2023/07/01 00:11:10;;;;;;;5.82;3.55;;;;;;;12.77;100.00;92769.66;2533586;23;20002;-82
2023/07/01 00:12:15;;;;;;;9.35;3.88;;;;;;;12.76;100.00;92767.44;2547922;23;20608;-81
2023/07/01 00:13:17;;;;;;;7.53;3.25;;;;;;;12.81;100.00;92766.84;2572271;23;20015;-82
2023/07/01 00:14:20;;;;;;;8.40;3.20;;;;;;;12.84;100.00;92764.06;2572505;23;20013;-83
2023/07/01 00:15:23;;;;;;;4.05;3.33;;;;;;;12.87;100.00;92765.13;2558157;23;20048;-82
2023/07/01 00:16:27;;;;;;;5.82;3.13;;;;;;;12.87;100.00;92772.44;2546191;23;20029;-84
2023/07/01 00:17:28;;;;;;;4.63;2.92;;;;;;;12.93;100.00;92763.34;2546016;23;20013;-83
2023/07/01 00:18:30;;;;;;;4.43;3.35;;;;;;;12.94;100.00;92759.47;2533682;23;20009;-80
2023/07/01 00:19:33;;;;;;;4.72;3.30;;;;;;;12.97;100.00;92755.94;2546184;23;20013;-81
2023/07/01 00:20:48;;;;;;;5.82;3.28;;;;;;;13.07;100.00;92754.78;2545694;23;20420;-84
2023/07/01 00:21:50;;;;;;;3.75;2.72;;;;;;;13.10;100.00;92755.84;2560437;23;20071;-82
2023/07/01 00:22:53;;;;;;;7.13;3.13;;;;;;;13.15;100.00;92754.53;2557206;23;20032;-83
2023/07/01 00:23:55;;;;;;;4.32;3.10;;;;;;;13.17;100.00;92754.81;2533930;23;20025;-83
2023/07/01 00:24:57;;;;;;;4.68;3.05;;;;;;;13.13;100.00;92759.59;2545524;23;20080;-83
2023/07/01 00:25:58;;;;;;;4.43;3.00;;;;;;;13.11;100.00;92755.41;2556861;23;20004;-84
2023/07/01 00:26:59;;;;;;;4.88;3.17;;;;;;;13.23;100.00;92753.84;2557274;23;20439;-83
2023/07/01 00:28:00;;;;;;;4.97;3.20;;;;;;;13.22;100.00;92755.03;2557489;23;20005;-85
2023/07/01 00:29:02;;;;;;;6.18;3.17;;;;;;;13.22;100.00;92755.03;2569566;23;20012;-82
2023/07/01 00:30:03;;;;;;;5.75;2.83;;;;;;;13.24;100.00;92754.59;2557331;23;20001;-82
2023/07/01 00:31:04;;;;;;;4.25;3.60;;;;;;;13.18;100.00;92757.09;2544930;23;20025;-83
2023/07/01 00:32:07;;;;;;;3.92;3.03;;;;;;;13.15;100.00;92757.22;2544401;23;20704;-84
2023/07/01 00:33:11;;;;;;;4.13;3.40;;;;;;;13.16;100.00;92756.75;2545428;23;20013;-86
2023/07/01 00:34:12;;;;;;;8.20;3.55;;;;;;;13.18;100.00;92759.75;2545618;23;20001;-82
2023/07/01 00:35:13;;;;;;;3.83;2.92;;;;;;;13.12;100.00;92745.41;2545160;23;20009;-82
2023/07/01 00:36:14;;;;;;;5.93;3.35;;;;;;;13.15;100.00;92754.53;2533116;23;20727;-83
2023/07/01 00:37:15;;;;;;;5.18;3.22;;;;;;;13.22;100.00;92755.03;2545161;23;19997;-81
2023/07/01 00:38:19;;;;;;;4.88;3.45;;;;;;;13.21;100.00;92752.75;2557933;23;20005;-85
2023/07/01 00:39:20;;;;;;;7.15;3.28;;;;;;;13.22;100.00;92747.00;2570287;23;20004;-81
2023/07/01 00:40:22;;;;;;;5.32;3.30;;;;;;;13.24;100.00;92743.84;2557531;23;20008;-83
2023/07/01 00:41:23;;;;;;;7.28;3.55;;;;;;;13.27;100.00;92751.78;2545295;23;20084;-82
2023/07/01 00:42:26;;;;;;;6.75;3.30;;;;;;;13.27;100.00;92751.03;2532953;23;20005;-83
2023/07/01 00:43:28;;;;;;;5.68;3.30;;;;;;;13.26;100.00;92738.81;2545432;23;20009;-83
2023/07/01 00:44:29;;;;;;;4.75;3.38;;;;;;;13.27;100.00;92743.72;2533425;23;20080;-84
2023/07/01 00:45:30;;;;;;;5.38;3.35;;;;;;;13.23;100.00;92745.06;2544917;23;20479;-81
2023/07/01 00:46:33;;;;;;;4.25;3.50;;;;;;;13.26;100.00;92744.91;2557219;23;20012;-84
2023/07/01 00:47:35;;;;;;;4.68;3.33;;;;;;;13.25;100.00;92746.09;2545231;23;20146;-84
2023/07/01 00:48:41;;;;;;;5.55;3.35;;;;;;;13.24;100.00;92741.16;2533196;23;20097;-84
2023/07/01 00:49:42;;;;;;;3.10;2.80;;;;;;;13.27;100.00;92742.97;2534803;23;20376;-83
2023/07/01 00:50:44;;;;;;;5.10;3.35;;;;;;;13.27;100.00;92748.34;2532843;23;20440;-82
2023/07/01 00:51:47;;;;;;;4.43;2.72;;;;;;;13.25;100.00;92743.41;2533788;23;20512;-82
2023/07/01 00:52:50;;;;;;;8.02;3.35;;;;;;;13.20;100.00;92743.97;2545377;23;20056;-81
2023/07/01 00:53:51;;;;;;;6.25;3.70;;;;;;;13.21;100.00;92745.44;2545695;23;20012;-81
2023/07/01 00:54:52;;;;;;;5.50;3.60;;;;;;;13.24;100.00;92743.84;2557510;23;20088;-80
2023/07/01 00:55:53;;;;;;;3.50;3.20;;;;;;;13.26;100.00;92736.88;2557127;23;20012;-82
2023/07/01 00:56:55;;;;;;;4.93;3.33;;;;;;;13.26;100.00;92738.81;2532383;23;20468;-83
2023/07/01 00:57:56;;;;;;;6.35;3.20;;;;;;;13.27;100.00;92743.72;2533518;23;20001;-84
2023/07/01 00:58:58;;;;;;;4.18;3.13;;;;;;;13.28;100.00;92741.78;2532356;23;20005;-85
2023/07/01 01:00:01;;;;;;;4.97;3.20;;;;;;;13.27;100.00;92742.97;2545542;23;20021;-82
2023/07/01 01:01:09;;;;;;;3.97;3.10;;;;;;;13.19;100.00;92734.41;2544845;23;20093;-83
2023/07/01 01:02:21;;;;;;;5.55;3.08;;;;;;;13.20;100.00;92741.28;2535319;23;20033;-85
2023/07/01 01:03:47;;;;;;;6.35;3.03;;;;;;;13.21;100.00;92742.00;2537531;23;20016;-85
2023/07/01 01:04:58;;;;;;;4.55;3.00;;;;;;;13.29;100.00;92735.22;2562720;23;20062;-83
2023/07/01 01:06:03;;;;;;;4.47;3.03;;;;;;;13.29;100.00;92737.91;2557173;23;20004;-83
2023/07/01 01:07:27;;;;;;;7.55;3.75;;;;;;;13.29;100.00;92730.59;2534557;23;20013;-81
2023/07/01 01:08:58;;;;;;;6.65;3.25;;;;;;;13.27;100.00;92726.88;2553693;23;20035;-86
2023/07/01 01:10:07;;;;;;;4.82;3.13;;;;;;;13.29;100.00;92732.53;2563669;23;20390;-84
2023/07/01 01:11:09;;;;;;;4.05;2.97;;;;;;;13.31;100.00;92728.22;2558586;23;20008;-83
2023/07/01 01:12:12;;;;;;;4.70;3.08;;;;;;;13.27;100.00;92732.25;2557656;23;20002;-83
2023/07/01 01:13:17;;;;;;;4.40;3.05;;;;;;;13.32;100.00;92731.66;2558125;23;20024;-83
2023/07/01 01:14:18;;;;;;;4.25;3.17;;;;;;;13.31;100.00;92727.50;2545551;23;20121;-85
2023/07/01 01:15:27;;;;;;;9.27;3.35;;;;;;;13.32;100.00;92735.09;2557570;23;20328;-82
2023/07/01 01:16:28;;;;;;;6.32;3.17;;;;;;;13.35;100.00;92730.78;2546486;23;20040;-82
2023/07/01 01:17:34;;;;;;;3.28;2.97;;;;;;;13.31;100.00;92732.84;2556851;23;20005;-82
2023/07/01 01:18:36;;;;;;;3.72;3.42;;;;;;;13.32;100.00;92735.09;2569394;23;20331;-87
2023/07/01 01:19:41;;;;;;;5.75;3.75;;;;;;;13.28;100.00;92733.72;2557200;23;20084;-83
2023/07/01 01:20:43;;;;;;;6.65;3.10;;;;;;;13.27;100.00;92726.88;2546550;23;20096;-84
2023/07/01 01:21:52;;;;;;;7.35;3.40;;;;;;;13.29;100.00;92730.59;2557899;23;19997;-85
2023/07/01 01:23:01;;;;;;;3.88;3.05;;;;;;;13.27;100.00;92726.88;2546747;23;20083;-83
2023/07/01 01:24:07;;;;;;;5.95;3.63;;;;;;;13.26;100.00;92726.13;2548286;23;20408;-84
2023/07/01 01:25:15;;;;;;;4.57;3.00;;;;;;;13.15;100.00;92725.75;2546933;23;20024;-85
2023/07/01 01:26:20;;;;;;;6.78;3.25;;;;;;;13.17;100.00;92725.31;2558456;23;20013;-81
2023/07/01 01:27:28;;;;;;;6.55;3.28;;;;;;;13.15;100.00;92725.75;2569316;23;20001;-85
2023/07/01 01:28:30;;;;;;;6.60;3.58;;;;;;;13.11;100.00;92725.88;2546127;23;20005;-85
2023/07/01 01:29:31;;;;;;;5.82;3.40;;;;;;;13.13;100.00;92733.50;2544973;23;20005;-86
2023/07/01 01:30:37;;;;;;;5.22;3.13;;;;;;;13.12;100.00;92732.00;2532715;23;20002;-82
2023/07/01 01:31:40;;;;;;;4.97;3.17;;;;;;;13.11;100.00;92731.25;2533929;23;20834;-84
2023/07/01 01:32:41;;;;;;;3.90;3.22;;;;;;;13.13;100.00;92738.13;2533005;23;20097;-82
2023/07/01 01:33:43;;;;;;;6.95;3.33;;;;;;;13.08;100.00;92729.47;2532669;23;20421;-86
2023/07/01 01:34:45;;;;;;;5.80;2.97;;;;;;;13.12;100.00;92732.00;2557370;23;20008;-85
2023/07/01 01:35:46;;;;;;;5.03;3.28;;;;;;;13.11;100.00;92735.88;2544230;23;20527;-84
2023/07/01 01:36:52;;;;;;;4.05;3.38;;;;;;;13.09;100.00;92728.28;2544893;23;20005;-86
2023/07/01 01:38:00;;;;;;;4.45;3.35;;;;;;;13.13;100.00;92730.81;2546703;23;20637;-83
2023/07/01 01:39:13;;;;;;;7.63;3.50;;;;;;;13.07;100.00;92724.53;2556523;23;20455;-85
2023/07/01 01:40:48;;;;;;;4.30;3.33;;;;;;;13.07;100.00;92727.94;2537325;23;20012;-82
2023/07/01 01:42:01;;;;;;;5.13;3.53;;;;;;;13.07;100.00;92727.19;2541438;23;20004;-83
2023/07/01 01:43:21;;;;;;;6.57;3.08;;;;;;;13.08;100.00;92726.00;2559395;23;20013;-84
2023/07/01 01:44:36;;;;;;;5.28;3.40;;;;;;;13.03;100.00;92721.97;2560558;23;20084;-83
2023/07/01 01:45:37;;;;;;;10.07;3.60;;;;;;;13.00;100.00;92730.91;2547181;23;20036;-83
2023/07/01 01:46:40;;;;;;;5.47;3.65;;;;;;;12.98;100.00;92724.47;2544758;23;20013;-82
2023/07/01 01:47:47;;;;;;;5.97;3.30;;;;;;;12.96;100.00;92726.88;2556735;23;20013;-82
2023/07/01 01:48:48;;;;;;;4.97;3.42;;;;;;;12.96;100.00;92729.56;2546552;23;20009;-84
2023/07/01 01:49:57;;;;;;;9.77;3.38;;;;;;;12.97;100.00;92733.72;2556918;23;20035;-83
2023/07/01 01:51:02;;;;;;;5.95;3.67;;;;;;;12.89;100.00;92725.19;2558688;23;20009;-86
2023/07/01 01:52:04;;;;;;;4.03;3.17;;;;;;;12.85;100.00;92728.00;2545546;23;20013;-82
2023/07/01 01:53:06;;;;;;;8.10;3.78;;;;;;;12.83;100.00;92724.28;2532525;23;20112;-84
2023/07/01 01:54:09;;;;;;;6.40;3.38;;;;;;;12.82;100.00;92723.53;2544969;23;20011;-81
2023/07/01 01:55:13;;;;;;;7.57;3.45;;;;;;;12.81;100.00;92726.63;2557362;23;20313;-82
2023/07/01 01:56:17;;;;;;;4.90;3.47;;;;;;;12.79;100.00;92719.03;2545502;23;20014;-83
2023/07/01 01:57:19;;;;;;;5.75;3.30;;;;;;;12.70;100.00;92729.72;2533953;23;20441;-83
2023/07/01 01:58:21;;;;;;;4.82;3.47;;;;;;;12.60;100.00;92725.47;2544492;23;20372;-83
2023/07/01 01:59:23;;;;;;;5.63;3.30;;;;;;;12.59;100.00;92724.72;2557855;23;20012;-84
2023/07/01 02:00:24;;;;;;;6.07;3.72;;;;;;;12.57;100.00;92727.09;2557274;23;20375;-82
2023/07/01 02:01:25;;;;;;;4.72;3.63;;;;;;;12.50;100.00;92730.00;2532600;23;20440;-85
2023/07/01 02:02:26;;;;;;;4.07;3.53;;;;;;;12.50;100.00;92723.91;2532413;23;20005;-85
2023/07/01 02:03:27;;;;;;;6.88;3.50;;;;;;;12.44;100.00;92725.66;2557359;23;20669;-83
2023/07/01 02:04:28;;;;;;;8.55;3.85;;;;;;;12.49;100.00;92728.53;2556434;23;20019;-81
2023/07/01 02:05:35;;;;;;;5.07;3.72;;;;;;;12.46;100.00;92725.97;2544428;23;20036;-83
2023/07/01 02:06:39;;;;;;;8.43;3.72;;;;;;;12.34;100.00;92724.88;2557995;23;20057;-84
2023/07/01 02:07:41;;;;;;;5.30;3.70;;;;;;;12.32;100.00;92725.28;2556859;23;20004;-85
2023/07/01 02:08:43;;;;;;;6.22;3.60;;;;;;;12.33;100.00;92729.44;2544606;23;20007;-83
2023/07/01 02:09:46;;;;;;;5.45;3.40;;;;;;;12.31;100.00;92723.78;2545475;23;20012;-85
2023/07/01 02:10:47;;;;;;;6.38;3.10;;;;;;;12.27;100.00;92728.53;2546200;23;20009;-87
2023/07/01 02:11:48;;;;;;;5.13;3.63;;;;;;;12.22;100.00;92729.09;2546662;23;20020;-85
2023/07/01 02:12:51;;;;;;;8.98;3.63;;;;;;;12.25;100.00;92728.22;2545572;23;20340;-86
2023/07/01 02:13:52;;;;;;;7.13;3.50;;;;;;;12.26;100.00;92726.28;2558340;23;20005;-82
2023/07/01 02:14:53;;;;;;;4.65;3.08;;;;;;;12.17;100.00;92721.59;2569781;23;20007;-83
2023/07/01 02:15:54;;;;;;;5.43;3.40;;;;;;;12.14;100.00;92729.75;2569241;23;20008;-84
2023/07/01 02:16:54;;;;;;;4.93;3.70;;;;;;;12.16;100.00;92725.47;2556745;23;20301;-86
2023/07/01 02:17:55;;;;;;;7.22;3.70;;;;;;;12.17;100.00;92728.91;2569453;23;20000;-83
2023/07/01 02:18:57;;;;;;;4.85;3.30;;;;;;;12.12;100.00;92713.38;2557515;23;20004;-84
2023/07/01 02:32:14;;;;;;;6.60;3.97;;;;;;;11.97;100.00;92719.19;2580231;22;20107;-85
2023/07/01 02:33:17;;;;;;;8.07;4.85;;;;;;;12.01;100.00;92717.16;2560713;23;20017;-82
2023/07/01 02:34:25;;;;;;;5.10;4.10;;;;;;;12.05;100.00;92722.41;2536764;23;20083;-81
2023/07/01 02:35:29;;;;;;;7.28;4.05;;;;;;;12.12;100.00;92724.84;2551450;23;20111;-82
2023/07/01 02:36:30;;;;;;;7.97;4.35;;;;;;;12.07;100.00;92723.47;2573243;23;20019;-81
2023/07/01 02:37:31;;;;;;;6.00;4.20;;;;;;;12.14;100.00;92719.78;2561579;23;20005;-82
2023/07/01 02:38:33;;;;;;;4.47;3.88;;;;;;;12.18;100.00;92717.00;2554508;23;19997;-79
2023/07/01 02:39:47;;;;;;;6.88;4.10;;;;;;;12.25;100.00;92716.75;2559341;23;20005;-79
2023/07/01 02:40:48;;;;;;;7.40;4.03;;;;;;;12.19;100.00;92718.47;2543951;23;20002;-84
2023/07/01 02:41:50;;;;;;;5.80;3.95;;;;;;;12.22;100.00;92717.63;2548250;23;20001;-86
2023/07/01 02:42:54;;;;;;;8.05;4.05;;;;;;;12.24;100.00;92716.00;2548339;23;20012;-80
2023/07/01 02:43:56;;;;;;;5.95;3.92;;;;;;;12.16;100.00;92713.97;2549533;23;20002;-83
2023/07/01 02:44:59;;;;;;;6.88;3.97;;;;;;;12.15;100.00;92720.53;2548382;23;20088;-82
2023/07/01 02:46:00;;;;;;;5.18;4.25;;;;;;;12.14;100.00;92716.38;2536676;23;20528;-80
2023/07/01 02:47:01;;;;;;;5.93;3.97;;;;;;;12.23;100.00;92711.81;2548269;23;20431;-83
2023/07/01 02:48:03;;;;;;;5.78;4.13;;;;;;;12.27;100.00;92719.75;2535640;23;20277;-84
2023/07/01 02:49:04;;;;;;;4.15;3.75;;;;;;;12.30;100.00;92713.50;2548767;23;20415;-82
2023/07/01 02:50:07;;;;;;;6.57;4.13;;;;;;;12.28;100.00;92719.28;2548395;23;20016;-83
2023/07/01 02:51:08;;;;;;;5.68;4.32;;;;;;;12.32;100.00;92716.50;2548893;23;19998;-80
2023/07/01 02:52:12;;;;;;;7.30;4.05;;;;;;;12.37;100.00;92709.81;2536451;23;20009;-82
2023/07/01 02:53:15;;;;;;;5.18;4.22;;;;;;;12.32;100.00;92709.19;2537950;23;20002;-83
2023/07/01 02:54:17;;;;;;;7.38;3.63;;;;;;;12.35;100.00;92715.63;2548934;23;20016;-83
2023/07/01 02:55:19;;;;;;;8.18;3.97;;;;;;;12.37;100.00;92707.16;2560508;23;20066;-83
2023/07/01 02:56:20;;;;;;;6.63;4.50;;;;;;;12.41;100.00;92713.13;2548468;23;20009;-83
2023/07/01 02:57:21;;;;;;;5.70;4.30;;;;;;;12.38;100.00;92709.41;2524413;23;20545;-83
2023/07/01 02:58:22;;;;;;;8.65;4.47;;;;;;;12.30;100.00;92706.22;2536514;23;20019;-84
2023/07/01 02:59:23;;;;;;;6.40;4.03;;;;;;;12.27;100.00;92706.34;2535789;23;20006;-82
2023/07/01 03:00:30;;;;;;;8.80;4.57;;;;;;;12.30;100.00;92705.47;2535754;23;20444;-82
2023/07/01 03:01:32;;;;;;;5.82;4.22;;;;;;;12.34;100.00;92709.53;2538712;23;20005;-80
2023/07/01 03:02:33;;;;;;;5.30;4.25;;;;;;;12.41;100.00;92705.84;2536116;23;19998;-83
2023/07/01 03:03:37;;;;;;;7.22;4.35;;;;;;;12.45;100.00;92711.81;2560645;23;20009;-82
2023/07/01 03:04:42;;;;;;;7.63;4.00;;;;;;;12.48;100.00;92700.22;2560344;23;20079;-84
2023/07/01 03:05:44;;;;;;;7.80;4.05;;;;;;;12.47;100.00;92703.34;2537470;23;20002;-82
2023/07/01 03:06:45;;;;;;;7.05;3.90;;;;;;;12.42;100.00;92710.00;2548841;23;20060;-81
2023/07/01 03:07:46;;;;;;;6.97;4.00;;;;;;;12.41;100.00;92710.44;2560697;23;20391;-82
2023/07/01 03:08:47;;;;;;;5.00;3.92;;;;;;;12.48;100.00;92700.22;2536112;23;20010;-81
2023/07/01 03:09:48;;;;;;;7.30;4.20;;;;;;;12.41;100.00;92711.19;2536194;23;20002;-82
2023/07/01 03:10:49;;;;;;;11.23;4.18;;;;;;;12.38;100.00;92708.63;2548051;23;20052;-83
2023/07/01 03:11:52;;;;;;;7.85;4.07;;;;;;;12.50;100.00;92707.81;2553594;23;20012;-81
2023/07/01 03:12:53;;;;;;;4.53;3.83;;;;;;;12.52;100.00;92710.84;2561989;23;20071;-81
2023/07/01 03:13:54;;;;;;;6.35;3.97;;;;;;;12.58;100.00;92714.44;2562143;23;20513;-85
2023/07/01 03:14:55;;;;;;;4.47;3.65;;;;;;;12.53;100.00;92715.00;2562478;23;20001;-83
2023/07/01 03:15:57;;;;;;;8.45;4.20;;;;;;;12.52;100.00;92719.63;2561767;23;20032;-83
2023/07/01 03:16:58;;;;;;;8.55;4.50;;;;;;;12.49;100.00;92717.81;2549733;23;20009;-83
2023/07/01 03:17:59;;;;;;;6.13;4.40;;;;;;;12.53;100.00;92720.38;2549710;23;20080;-81
2023/07/01 03:19:03;;;;;;;11.93;4.55;;;;;;;12.55;100.00;92716.03;2537330;23;20013;-83
2023/07/01 03:20:05;;;;;;;5.45;4.13;;;;;;;12.60;100.00;92715.50;2538169;23;20016;-83
2023/07/01 03:21:17;;;;;;;4.97;4.07;;;;;;;12.60;100.00;92715.50;2549240;23;20001;-82
2023/07/01 03:22:19;;;;;;;8.75;4.03;;;;;;;12.59;100.00;92719.34;2552355;23;20432;-81
2023/07/01 03:23:20;;;;;;;7.03;4.57;;;;;;;12.55;100.00;92723.34;2548737;23;20017;-82
2023/07/01 03:24:22;;;;;;;8.23;4.15;;;;;;;12.57;100.00;92721.72;2549200;23;20490;-83
2023/07/01 03:25:27;;;;;;;5.93;3.70;;;;;;;12.57;100.00;92713.69;2549601;23;20016;-84
2023/07/01 03:26:28;;;;;;;6.50;4.03;;;;;;;12.64;100.00;92715.34;2560681;23;20009;-80
2023/07/01 03:27:29;;;;;;;10.15;4.07;;;;;;;12.58;100.00;92714.44;2548341;23;20656;-82
2023/07/01 03:28:30;;;;;;;5.15;4.25;;;;;;;12.58;100.00;92715.19;2574243;23;20063;-80
2023/07/01 03:29:34;;;;;;;7.05;3.97;;;;;;;12.60;100.00;92707.47;2549008;23;20008;-81
2023/07/01 03:30:37;;;;;;;4.60;3.80;;;;;;;12.64;100.00;92719.97;2561225;23;20012;-83
2023/07/01 03:31:40;;;;;;;4.75;4.00;;;;;;;12.63;100.00;92699.72;2560235;23;20632;-82
2023/07/01 03:32:45;;;;;;;5.05;3.92;;;;;;;12.64;100.00;92701.94;2534552;23;20056;-79
2023/07/01 03:33:48;;;;;;;10.23;4.07;;;;;;;12.54;100.00;92700.41;2534683;23;20005;-80
2023/07/01 03:34:49;;;;;;;6.35;3.80;;;;;;;12.52;100.00;92703.53;2533943;23;20010;-82
2023/07/01 03:35:50;;;;;;;5.53;3.92;;;;;;;12.48;100.00;92704.84;2545084;23;20070;-80
2023/07/01 03:36:51;;;;;;;3.78;3.45;;;;;;;12.45;100.00;92697.66;2557624;23;20009;-81
2023/07/01 03:37:53;;;;;;;5.05;3.53;;;;;;;12.53;100.00;92696.22;2545456;23;20359;-78
2023/07/01 03:38:58;;;;;;;5.78;4.05;;;;;;;12.56;100.00;92698.06;2558057;23;20013;-84
2023/07/01 03:40:00;;;;;;;5.60;3.80;;;;;;;12.54;100.00;92695.78;2547764;23;20009;-83
2023/07/01 03:41:01;;;;;;;7.32;3.88;;;;;;;12.61;100.00;92692.13;2545871;23;20746;-82
2023/07/01 03:42:03;;;;;;;6.75;3.80;;;;;;;12.60;100.00;92696.00;2545761;23;20008;-80
2023/07/01 03:43:06;;;;;;;4.38;3.35;;;;;;;12.58;100.00;92692.97;2546024;23;20020;-81
2023/07/01 03:44:11;;;;;;;10.15;3.92;;;;;;;12.58;100.00;92701.03;2534614;23;20010;-82
2023/07/01 03:45:12;;;;;;;5.68;3.88;;;;;;;12.58;100.00;92695.66;2534714;23;20054;-83
2023/07/01 03:46:16;;;;;;;4.43;3.83;;;;;;;12.61;100.00;92700.16;2533737;23;20001;-82
2023/07/01 03:47:17;;;;;;;7.45;3.70;;;;;;;12.59;100.00;92697.91;2534506;23;20010;-82
2023/07/01 03:48:19;;;;;;;4.40;3.78;;;;;;;12.59;100.00;92691.78;2533372;23;20758;-84
2023/07/01 03:49:20;;;;;;;7.80;3.90;;;;;;;12.60;100.00;92691.38;2557474;23;20067;-84
2023/07/01 03:50:21;;;;;;;4.43;3.63;;;;;;;12.59;100.00;92691.78;2557484;23;20052;-79
2023/07/01 03:51:22;;;;;;;4.72;3.80;;;;;;;12.56;100.00;92692.69;2569853;23;20340;-82
2023/07/01 03:52:23;;;;;;;4.13;3.55;;;;;;;12.57;100.00;92689.56;2569968;23;20003;-79
2023/07/01 03:53:24;;;;;;;7.90;3.55;;;;;;;12.63;100.00;92692.41;2557574;23;20005;-82
2023/07/01 03:54:25;;;;;;;5.97;3.92;;;;;;;12.63;100.00;92688.97;2533344;23;20006;-83
2023/07/01 03:55:26;;;;;;;5.57;3.88;;;;;;;12.59;100.00;92689.84;2533171;23;20017;-83
2023/07/01 03:56:27;;;;;;;5.60;4.03;;;;;;;12.57;100.00;92689.56;2533275;23;20033;-82
2023/07/01 03:57:29;;;;;;;6.97;3.78;;;;;;;12.65;100.00;92687.38;2533495;23;20132;-81
2023/07/01 03:58:31;;;;;;;4.65;3.45;;;;;;;12.64;100.00;92687.78;2533101;23;20010;-81
2023/07/01 03:59:32;;;;;;;7.07;4.10;;;;;;;12.63;100.00;92680.94;2533296;23;20073;-84
2023/07/01 04:00:34;;;;;;;6.25;3.60;;;;;;;12.62;100.00;92684.81;2557389;23;20001;-84
2023/07/01 04:01:37;;;;;;;5.22;3.85;;;;;;;12.60;100.00;92677.97;2569995;23;20092;-82
2023/07/01 04:02:38;;;;;;;9.60;3.97;;;;;;;12.57;100.00;92681.50;2546472;23;20009;-83
2023/07/01 04:03:39;;;;;;;6.18;3.33;;;;;;;12.60;100.00;92682.59;2546421;23;20009;-81
2023/07/01 04:04:40;;;;;;;5.15;3.60;;;;;;;12.64;100.00;92682.44;2559482;23;20499;-83
2023/07/01 04:05:41;;;;;;;6.30;4.13;;;;;;;12.53;100.00;92686.25;2546723;23;20416;-82
2023/07/01 04:06:48;;;;;;;5.53;3.85;;;;;;;12.57;100.00;92681.50;2545755;23;20399;-80
2023/07/01 04:07:52;;;;;;;6.95;3.92;;;;;;;12.58;100.00;92683.00;2536042;23;20008;-82
2023/07/01 04:08:54;;;;;;;7.65;3.90;;;;;;;12.52;100.00;92682.09;2558453;23;20300;-84
2023/07/01 04:09:57;;;;;;;3.78;3.35;;;;;;;12.53;100.00;92682.84;2557856;23;20339;-80
2023/07/01 04:10:59;;;;;;;5.60;3.60;;;;;;;12.54;100.00;92677.03;2533726;23;20002;-84
2023/07/01 04:12:07;;;;;;;13.40;4.07;;;;;;;12.49;100.00;92682.22;2546606;23;20343;-81
2023/07/01 04:13:13;;;;;;;4.50;4.10;;;;;;;12.50;100.00;92683.69;2560417;23;20412;-83
2023/07/01 04:14:15;;;;;;;7.40;3.80;;;;;;;12.48;100.00;92678.78;2547206;23;20084;-81
2023/07/01 04:15:16;;;;;;;6.22;4.40;;;;;;;12.49;100.00;92677.59;2558196;23;20000;-84
2023/07/01 04:16:20;;;;;;;5.40;4.18;;;;;;;12.48;100.00;92676.09;2545686;23;20193;-81
2023/07/01 04:17:20;;;;;;;4.80;4.15;;;;;;;12.50;100.00;92678.34;2546453;23;20434;-81
2023/07/01 04:18:21;;;;;;;5.18;3.95;;;;;;;12.52;100.00;92676.72;2570150;23;20004;-84
2023/07/01 04:19:23;;;;;;;6.55;4.22;;;;;;;12.55;100.00;92680.44;2557953;23;20009;-82
2023/07/01 04:20:27;;;;;;;4.88;4.38;;;;;;;12.52;100.00;92684.78;2533985;23;20002;-83
2023/07/01 04:21:28;;;;;;;5.00;4.45;;;;;;;12.60;100.00;92691.38;2553636;23;20092;-84
2023/07/01 04:22:30;;;;;;;6.75;4.35;;;;;;;12.59;100.00;92689.84;2547833;23;20059;-79
2023/07/01 04:23:31;;;;;;;5.45;3.78;;;;;;;12.59;100.00;92686.44;2536606;23;20388;-81
2023/07/01 04:24:33;;;;;;;9.25;4.30;;;;;;;12.48;100.00;92686.81;2535480;23;20125;-82
2023/07/01 04:25:34;;;;;;;6.72;4.07;;;;;;;12.56;100.00;92681.97;2536104;23;20044;-81
2023/07/01 04:26:36;;;;;;;4.95;4.05;;;;;;;12.51;100.00;92690.56;2558674;23;20005;-82
2023/07/01 04:27:37;;;;;;;10.10;4.45;;;;;;;12.46;100.00;92678.47;2582240;23;20071;-83
2023/07/01 04:28:41;;;;;;;5.22;4.60;;;;;;;12.42;100.00;92683.19;2557811;23;20005;-83
2023/07/01 04:29:44;;;;;;;5.05;4.55;;;;;;;12.41;100.00;92681.72;2558360;23;20035;-81
2023/07/01 04:30:46;;;;;;;6.72;4.63;;;;;;;12.44;100.00;92680.84;2558336;23;20084;-82
2023/07/01 04:31:48;;;;;;;7.82;5.07;;;;;;;12.47;100.00;92685.34;2557300;23;20028;-81
2023/07/01 04:32:50;;;;;;;5.10;4.28;;;;;;;12.48;100.00;92691.44;2557079;23;20005;-83
2023/07/01 04:33:52;;;;;;;9.40;4.47;;;;;;;12.46;100.00;92683.81;2557209;23;20051;-84
2023/07/01 04:34:54;;;;;;;5.40;4.03;;;;;;;12.47;100.00;92681.91;2545374;23;20052;-83
2023/07/01 04:35:56;;;;;;;4.80;4.25;;;;;;;12.48;100.00;92681.47;2533837;23;20014;-82
2023/07/01 04:36:57;;;;;;;8.63;4.15;;;;;;;12.43;100.00;92678.63;2533017;23;20061;-79
2023/07/01 04:37:58;;;;;;;6.25;4.28;;;;;;;12.51;100.00;92688.63;2545301;23;20009;-83
2023/07/01 04:39:00;;;;;;;6.00;4.53;;;;;;;12.52;100.00;92686.69;2557585;23;20009;-82
2023/07/01 04:40:02;;;;;;;5.38;4.30;;;;;;;12.53;100.00;92683.56;2557390;23;20013;-84
2023/07/01 04:41:05;;;;;;;7.43;4.45;;;;;;;12.52;100.00;92684.03;2557407;23;20005;-82
2023/07/01 04:42:08;;;;;;;4.38;3.97;;;;;;;12.47;100.00;92682.66;2533917;23;20089;-82
2023/07/01 04:43:09;;;;;;;5.45;4.40;;;;;;;12.48;100.00;92684.16;2557800;23;20008;-82
2023/07/01 04:44:10;;;;;;;10.40;4.30;;;;;;;12.52;100.00;92684.78;2556997;23;20001;-81
2023/07/01 04:45:13;;;;;;;7.90;4.38;;;;;;;12.53;100.00;92680.91;2544819;23;20526;-81
2023/07/01 04:46:14;;;;;;;6.85;4.18;;;;;;;12.50;100.00;92681.75;2557537;23;20055;-82
2023/07/01 04:47:14;;;;;;;5.97;4.70;;;;;;;12.53;100.00;92680.16;2569918;23;20058;-83
2023/07/01 04:48:16;;;;;;;5.30;3.75;;;;;;;12.52;100.00;92679.41;2557584;23;20005;-81
2023/07/01 04:49:17;;;;;;;8.63;4.50;;;;;;;12.49;100.00;92682.94;2533284;23;20013;-81
2023/07/01 04:50:18;;;;;;;5.05;4.45;;;;;;;12.46;100.00;92683.81;2545626;23;20428;-82
2023/07/01 04:51:25;;;;;;;5.13;4.00;;;;;;;12.55;100.00;92681.19;2557443;23;20055;-84
2023/07/01 04:52:27;;;;;;;4.10;3.70;;;;;;;12.54;100.00;92682.38;2547157;23;20005;-82
2023/07/01 04:53:28;;;;;;;5.30;4.03;;;;;;;12.55;100.00;92683.88;2545286;23;20017;-81
2023/07/01 04:54:29;;;;;;;6.45;4.25;;;;;;;12.59;100.00;92692.53;2557225;23;20052;-83
2023/07/01 04:55:30;;;;;;;6.05;4.30;;;;;;;12.55;100.00;92691.16;2557082;23;20001;-84
2023/07/01 04:56:33;;;;;;;4.72;4.18;;;;;;;12.60;100.00;92691.38;2557688;23;20008;-83
2023/07/01 04:57:35;;;;;;;5.28;4.03;;;;;;;12.68;100.00;92685.72;2557742;23;20009;-79
2023/07/01 04:58:38;;;;;;;5.70;4.00;;;;;;;12.70;100.00;92686.81;2545536;23;20005;-83
2023/07/01 04:59:42;;;;;;;8.75;4.00;;;;;;;12.70;100.00;92686.06;2546016;23;20029;-81
2023/07/01 05:00:45;;;;;;;5.13;4.25;;;;;;;12.71;100.00;92684.88;2557946;23;20444;-81
2023/07/01 05:01:46;;;;;;;7.05;4.65;;;;;;;12.71;100.00;92682.19;2545253;23;20006;-83
2023/07/01 05:02:47;;;;;;;6.78;4.30;;;;;;;12.78;100.00;92687.28;2545347;23;20001;-80
2023/07/01 05:03:48;;;;;;;5.15;4.28;;;;;;;12.78;100.00;92682.66;2557143;23;20079;-85
2023/07/01 05:04:50;;;;;;;6.75;4.40;;;;;;;12.88;100.00;92690.75;2545578;23;20005;-80
2023/07/01 05:05:52;;;;;;;4.35;3.85;;;;;;;12.97;100.00;92678.13;2533117;23;20345;-82